Hebe — A8OH7 — position and weather

sailwx.info

Track history (hours):
 
Tides and Currents Weather Stations Pressure Air Temp Water Temp Dewpoint Dewpoint Depression Visibility Wind Speed Wind Dir Waves Ship Positions

Hebe

Last reported at 2015-Mar-21 04:28 UTC. Time now 2015-Mar-27 20:56 UTC.
Position N 01°16' E 104°15'.

Length 220 m; draft 11.3 m.

Type: Ship. MMSI: 636091480.

Date/timePositionNaut miles runAvg speedWind from/ knotsBaromVisibWave heightAir tempDewpointWater temp
2015-Mar-21 04:28N 01°16' E 104°15'28 1.9
2015-Mar-20 13:27N 01°16' E 103°46'0 0.0
2015-Mar-20 12:29N 01°16' E 103°46'0 0.0
2015-Mar-20 10:19N 01°16' E 103°46'0 0.0
2015-Mar-20 09:09N 01°16' E 103°46'0 0.0
2015-Mar-20 08:30N 01°16' E 103°46'0 0.0
2015-Mar-20 07:33N 01°16' E 103°46'0 0.0
2015-Mar-20 06:32N 01°16' E 103°46'0 0.0
2015-Mar-20 05:26N 01°16' E 103°46'0 0.0
2015-Mar-20 04:28N 01°16' E 103°46'0 0.0
2015-Mar-20 03:04N 01°16' E 103°46'0 0.0
2015-Mar-20 02:21N 01°16' E 103°46'0 0.0
2015-Mar-20 00:32N 01°16' E 103°46'0 0.0
2015-Mar-19 23:29N 01°16' E 103°46'0 0.0
2015-Mar-19 22:32N 01°16' E 103°46'0 0.0
2015-Mar-19 21:31N 01°16' E 103°46'0 0.0
2015-Mar-19 20:25N 01°16' E 103°46'0 0.0
2015-Mar-19 19:30N 01°16' E 103°46'0 0.0
2015-Mar-19 18:33N 01°16' E 103°46'0 0.0
2015-Mar-19 17:26N 01°16' E 103°46'0 0.0
2015-Mar-19 16:33N 01°16' E 103°46'0 0.0
2015-Mar-19 15:16N 01°16' E 103°46'0 0.0
2015-Mar-19 14:22N 01°16' E 103°46'0 0.0
2015-Mar-19 13:28N 01°16' E 103°46'0 0.0
2015-Mar-19 12:33N 01°16' E 103°46'1 0.8
2015-Mar-19 11:33N 01°15' E 103°46'7 7.4
2015-Mar-19 10:33N 01°14' E 103°53'6 6.5
2015-Mar-19 09:33N 01°16' E 103°60'8 8.1
2015-Mar-19 08:32N 01°17' E 104°08'  
Track history (hours):
 
Tides and Currents Weather Stations Pressure Air Temp Water Temp Dewpoint Dewpoint Depression Visibility Wind Speed Wind Dir Waves Ship Positions

Hebe

Last reported at 2015-Mar-21 04:28 UTC. Time now 2015-Mar-27 20:56 UTC.
Position N 01°16' E 104°15'.

Length 220 m; draft 11.3 m.

Type: Ship. MMSI: 636091480.

Date/timePositionNaut miles runAvg speedWind from/ knotsBaromVisibWave heightAir tempDewpointWater temp
2015-Mar-21 04:28N 01°16' E 104°15'28 1.9
2015-Mar-20 13:27N 01°16' E 103°46'0 0.0
2015-Mar-20 12:29N 01°16' E 103°46'0 0.0
2015-Mar-20 10:19N 01°16' E 103°46'0 0.0
2015-Mar-20 09:09N 01°16' E 103°46'0 0.0
2015-Mar-20 08:30N 01°16' E 103°46'0 0.0
2015-Mar-20 07:33N 01°16' E 103°46'0 0.0
2015-Mar-20 06:32N 01°16' E 103°46'0 0.0
2015-Mar-20 05:26N 01°16' E 103°46'0 0.0
2015-Mar-20 04:28N 01°16' E 103°46'0 0.0
2015-Mar-20 03:04N 01°16' E 103°46'0 0.0
2015-Mar-20 02:21N 01°16' E 103°46'0 0.0
2015-Mar-20 00:32N 01°16' E 103°46'0 0.0
2015-Mar-19 23:29N 01°16' E 103°46'0 0.0
2015-Mar-19 22:32N 01°16' E 103°46'0 0.0
2015-Mar-19 21:31N 01°16' E 103°46'0 0.0
2015-Mar-19 20:25N 01°16' E 103°46'0 0.0
2015-Mar-19 19:30N 01°16' E 103°46'0 0.0
2015-Mar-19 18:33N 01°16' E 103°46'0 0.0
2015-Mar-19 17:26N 01°16' E 103°46'0 0.0
2015-Mar-19 16:33N 01°16' E 103°46'0 0.0
2015-Mar-19 15:16N 01°16' E 103°46'0 0.0
2015-Mar-19 14:22N 01°16' E 103°46'0 0.0
2015-Mar-19 13:28N 01°16' E 103°46'0 0.0
2015-Mar-19 12:33N 01°16' E 103°46'1 0.8
2015-Mar-19 11:33N 01°15' E 103°46'7 7.4
2015-Mar-19 10:33N 01°14' E 103°53'6 6.5
2015-Mar-19 09:33N 01°16' E 103°60'8 8.1
2015-Mar-19 08:32N 01°17' E 104°08'  

Dump ship's entire track history